sensor_id;sensor_type;location;lat;lon;timestamp;P1;durP1;ratioP1;P2;durP2;ratioP2
75021;SDS011;63583;49.976;20.182;2023-07-20T00:02:20;7.10;;;4.80;;
75021;SDS011;63583;49.976;20.182;2023-07-20T00:04:46;7.85;;;4.88;;
75021;SDS011;63583;49.976;20.182;2023-07-20T00:07:12;7.10;;;4.95;;
75021;SDS011;63583;49.976;20.182;2023-07-20T00:09:37;7.90;;;5.65;;
75021;SDS011;63583;49.976;20.182;2023-07-20T00:12:03;8.15;;;5.63;;
75021;SDS011;63583;49.976;20.182;2023-07-20T00:14:29;6.65;;;4.50;;
75021;SDS011;63583;49.976;20.182;2023-07-20T00:16:55;6.50;;;5.10;;
75021;SDS011;63583;49.976;20.182;2023-07-20T00:19:24;7.35;;;4.60;;
75021;SDS011;63583;49.976;20.182;2023-07-20T00:21:51;9.45;;;4.78;;
75021;SDS011;63583;49.976;20.182;2023-07-20T00:24:17;6.57;;;4.35;;
75021;SDS011;63583;49.976;20.182;2023-07-20T00:26:43;7.38;;;4.68;;
75021;SDS011;63583;49.976;20.182;2023-07-20T00:29:08;6.65;;;4.15;;
75021;SDS011;63583;49.976;20.182;2023-07-20T00:31:35;7.35;;;4.80;;
75021;SDS011;63583;49.976;20.182;2023-07-20T00:34:04;6.35;;;3.95;;
75021;SDS011;63583;49.976;20.182;2023-07-20T00:36:31;7.90;;;4.82;;
75021;SDS011;63583;49.976;20.182;2023-07-20T00:38:57;7.93;;;5.18;;
75021;SDS011;63583;49.976;20.182;2023-07-20T00:41:23;6.20;;;4.40;;
75021;SDS011;63583;49.976;20.182;2023-07-20T00:43:48;5.82;;;4.07;;
75021;SDS011;63583;49.976;20.182;2023-07-20T00:46:14;5.70;;;3.88;;
75021;SDS011;63583;49.976;20.182;2023-07-20T00:48:40;5.30;;;3.78;;
75021;SDS011;63583;49.976;20.182;2023-07-20T00:51:07;6.38;;;4.32;;
75021;SDS011;63583;49.976;20.182;2023-07-20T00:53:32;6.43;;;4.20;;
75021;SDS011;63583;49.976;20.182;2023-07-20T00:55:58;5.60;;;4.05;;
75021;SDS011;63583;49.976;20.182;2023-07-20T00:58:24;6.45;;;4.10;;
75021;SDS011;63583;49.976;20.182;2023-07-20T01:00:50;7.30;;;4.40;;
75021;SDS011;63583;49.976;20.182;2023-07-20T01:03:16;5.93;;;4.15;;
75021;SDS011;63583;49.976;20.182;2023-07-20T01:05:45;5.78;;;4.32;;
75021;SDS011;63583;49.976;20.182;2023-07-20T01:08:34;5.13;;;3.90;;
75021;SDS011;63583;49.976;20.182;2023-07-20T01:11:16;6.18;;;3.75;;
75021;SDS011;63583;49.976;20.182;2023-07-20T01:13:48;6.00;;;3.97;;
75021;SDS011;63583;49.976;20.182;2023-07-20T01:16:14;6.88;;;4.30;;
75021;SDS011;63583;49.976;20.182;2023-07-20T01:18:40;5.82;;;3.67;;
75021;SDS011;63583;49.976;20.182;2023-07-20T01:21:06;6.55;;;4.10;;
75021;SDS011;63583;49.976;20.182;2023-07-20T01:23:47;5.10;;;3.67;;
75021;SDS011;63583;49.976;20.182;2023-07-20T01:29:27;6.20;;;4.05;;
75021;SDS011;63583;49.976;20.182;2023-07-20T01:32:18;5.45;;;3.60;;
75021;SDS011;63583;49.976;20.182;2023-07-20T01:34:48;6.85;;;3.60;;
75021;SDS011;63583;49.976;20.182;2023-07-20T01:39:45;6.50;;;3.72;;
75021;SDS011;63583;49.976;20.182;2023-07-20T01:42:11;5.82;;;3.83;;
75021;SDS011;63583;49.976;20.182;2023-07-20T01:44:37;4.85;;;3.35;;
75021;SDS011;63583;49.976;20.182;2023-07-20T01:47:04;6.75;;;3.35;;
75021;SDS011;63583;49.976;20.182;2023-07-20T01:49:29;6.53;;;3.70;;
75021;SDS011;63583;49.976;20.182;2023-07-20T01:51:55;6.88;;;3.55;;
75021;SDS011;63583;49.976;20.182;2023-07-20T01:54:20;6.90;;;4.05;;
75021;SDS011;63583;49.976;20.182;2023-07-20T01:56:46;7.80;;;3.60;;
75021;SDS011;63583;49.976;20.182;2023-07-20T01:59:12;5.07;;;3.47;;
75021;SDS011;63583;49.976;20.182;2023-07-20T02:01:38;6.68;;;3.83;;
75021;SDS011;63583;49.976;20.182;2023-07-20T02:04:03;6.28;;;4.22;;
75021;SDS011;63583;49.976;20.182;2023-07-20T02:06:30;6.15;;;3.97;;
75021;SDS011;63583;49.976;20.182;2023-07-20T02:08:55;6.70;;;4.07;;
75021;SDS011;63583;49.976;20.182;2023-07-20T02:11:21;8.75;;;4.13;;
75021;SDS011;63583;49.976;20.182;2023-07-20T02:13:47;6.55;;;3.92;;
75021;SDS011;63583;49.976;20.182;2023-07-20T02:16:12;5.82;;;3.80;;
75021;SDS011;63583;49.976;20.182;2023-07-20T02:18:38;8.30;;;4.32;;
75021;SDS011;63583;49.976;20.182;2023-07-20T02:21:03;7.47;;;3.90;;
75021;SDS011;63583;49.976;20.182;2023-07-20T02:23:29;6.95;;;3.80;;
75021;SDS011;63583;49.976;20.182;2023-07-20T02:25:55;6.40;;;3.70;;
75021;SDS011;63583;49.976;20.182;2023-07-20T02:28:20;7.63;;;4.03;;
75021;SDS011;63583;49.976;20.182;2023-07-20T02:30:46;7.20;;;4.15;;
75021;SDS011;63583;49.976;20.182;2023-07-20T02:33:11;6.95;;;4.10;;
75021;SDS011;63583;49.976;20.182;2023-07-20T02:35:37;6.57;;;4.03;;
75021;SDS011;63583;49.976;20.182;2023-07-20T02:38:02;7.47;;;4.55;;
75021;SDS011;63583;49.976;20.182;2023-07-20T02:40:28;10.07;;;4.00;;
75021;SDS011;63583;49.976;20.182;2023-07-20T02:42:54;6.35;;;4.07;;
75021;SDS011;63583;49.976;20.182;2023-07-20T02:45:20;7.43;;;4.45;;
75021;SDS011;63583;49.976;20.182;2023-07-20T02:47:45;7.18;;;4.30;;
75021;SDS011;63583;49.976;20.182;2023-07-20T02:50:11;7.60;;;3.65;;
75021;SDS011;63583;49.976;20.182;2023-07-20T02:52:38;6.25;;;3.65;;
75021;SDS011;63583;49.976;20.182;2023-07-20T02:55:04;7.47;;;4.00;;
75021;SDS011;63583;49.976;20.182;2023-07-20T02:57:30;6.68;;;3.95;;
75021;SDS011;63583;49.976;20.182;2023-07-20T02:59:55;7.32;;;3.90;;
75021;SDS011;63583;49.976;20.182;2023-07-20T03:02:21;5.57;;;3.42;;
75021;SDS011;63583;49.976;20.182;2023-07-20T03:04:47;5.95;;;3.88;;
75021;SDS011;63583;49.976;20.182;2023-07-20T03:07:12;5.47;;;3.65;;
75021;SDS011;63583;49.976;20.182;2023-07-20T03:09:38;5.78;;;3.72;;
75021;SDS011;63583;49.976;20.182;2023-07-20T03:12:04;5.60;;;3.35;;
75021;SDS011;63583;49.976;20.182;2023-07-20T03:14:30;6.57;;;3.80;;
75021;SDS011;63583;49.976;20.182;2023-07-20T03:16:56;7.28;;;3.55;;
75021;SDS011;63583;49.976;20.182;2023-07-20T03:19:22;4.90;;;3.25;;
75021;SDS011;63583;49.976;20.182;2023-07-20T03:21:47;5.35;;;3.40;;
75021;SDS011;63583;49.976;20.182;2023-07-20T03:24:13;4.72;;;3.22;;
75021;SDS011;63583;49.976;20.182;2023-07-20T03:26:39;4.68;;;3.42;;
75021;SDS011;63583;49.976;20.182;2023-07-20T03:29:04;5.88;;;3.53;;
75021;SDS011;63583;49.976;20.182;2023-07-20T03:31:31;5.82;;;3.88;;
75021;SDS011;63583;49.976;20.182;2023-07-20T03:33:57;6.18;;;3.80;;
75021;SDS011;63583;49.976;20.182;2023-07-20T03:36:23;5.35;;;3.50;;
75021;SDS011;63583;49.976;20.182;2023-07-20T03:38:49;5.22;;;3.35;;
75021;SDS011;63583;49.976;20.182;2023-07-20T03:41:15;5.95;;;4.00;;
75021;SDS011;63583;49.976;20.182;2023-07-20T03:43:41;6.22;;;3.53;;
75021;SDS011;63583;49.976;20.182;2023-07-20T03:46:07;7.95;;;3.75;;
75021;SDS011;63583;49.976;20.182;2023-07-20T03:48:33;6.43;;;3.50;;
75021;SDS011;63583;49.976;20.182;2023-07-20T03:50:59;7.53;;;3.72;;
75021;SDS011;63583;49.976;20.182;2023-07-20T03:53:25;6.25;;;3.65;;
75021;SDS011;63583;49.976;20.182;2023-07-20T03:55:51;6.65;;;3.45;;
75021;SDS011;63583;49.976;20.182;2023-07-20T03:58:18;6.25;;;3.75;;
75021;SDS011;63583;49.976;20.182;2023-07-20T04:00:47;5.07;;;3.50;;
75021;SDS011;63583;49.976;20.182;2023-07-20T04:03:16;8.00;;;3.58;;
75021;SDS011;63583;49.976;20.182;2023-07-20T04:05:42;6.43;;;3.75;;
75021;SDS011;63583;49.976;20.182;2023-07-20T04:08:08;7.05;;;3.72;;
75021;SDS011;63583;49.976;20.182;2023-07-20T04:10:34;6.35;;;3.58;;
75021;SDS011;63583;49.976;20.182;2023-07-20T04:13:00;6.25;;;3.60;;
75021;SDS011;63583;49.976;20.182;2023-07-20T04:15:26;7.93;;;4.32;;
75021;SDS011;63583;49.976;20.182;2023-07-20T04:17:52;7.45;;;4.78;;
75021;SDS011;63583;49.976;20.182;2023-07-20T04:20:17;6.82;;;3.65;;
75021;SDS011;63583;49.976;20.182;2023-07-20T04:22:43;7.88;;;4.40;;
75021;SDS011;63583;49.976;20.182;2023-07-20T04:25:09;5.30;;;3.72;;
75021;SDS011;63583;49.976;20.182;2023-07-20T04:27:35;7.75;;;3.45;;
75021;SDS011;63583;49.976;20.182;2023-07-20T04:30:01;9.32;;;4.60;;
75021;SDS011;63583;49.976;20.182;2023-07-20T04:32:29;6.75;;;3.72;;
75021;SDS011;63583;49.976;20.182;2023-07-20T04:34:54;6.03;;;3.58;;
75021;SDS011;63583;49.976;20.182;2023-07-20T04:37:20;6.55;;;3.80;;
75021;SDS011;63583;49.976;20.182;2023-07-20T04:39:45;7.35;;;3.75;;
75021;SDS011;63583;49.976;20.182;2023-07-20T04:42:11;7.50;;;4.20;;
75021;SDS011;63583;49.976;20.182;2023-07-20T04:44:37;6.82;;;3.83;;
75021;SDS011;63583;49.976;20.182;2023-07-20T04:47:02;6.57;;;4.07;;
75021;SDS011;63583;49.976;20.182;2023-07-20T04:49:28;7.35;;;4.25;;
75021;SDS011;63583;49.976;20.182;2023-07-20T04:51:54;6.50;;;3.97;;
75021;SDS011;63583;49.976;20.182;2023-07-20T04:54:19;8.40;;;4.30;;
75021;SDS011;63583;49.976;20.182;2023-07-20T04:56:45;7.70;;;4.32;;
75021;SDS011;63583;49.976;20.182;2023-07-20T04:59:11;7.63;;;4.35;;
75021;SDS011;63583;49.976;20.182;2023-07-20T05:01:36;8.50;;;4.18;;
75021;SDS011;63583;49.976;20.182;2023-07-20T05:04:02;6.82;;;3.92;;
75021;SDS011;63583;49.976;20.182;2023-07-20T05:06:28;7.57;;;4.40;;
75021;SDS011;63583;49.976;20.182;2023-07-20T05:08:54;7.57;;;4.05;;
75021;SDS011;63583;49.976;20.182;2023-07-20T05:11:19;8.38;;;4.57;;
75021;SDS011;63583;49.976;20.182;2023-07-20T05:13:45;9.38;;;3.97;;
75021;SDS011;63583;49.976;20.182;2023-07-20T05:16:11;9.43;;;4.70;;
75021;SDS011;63583;49.976;20.182;2023-07-20T05:18:36;7.22;;;4.03;;
75021;SDS011;63583;49.976;20.182;2023-07-20T05:21:02;6.43;;;3.95;;
75021;SDS011;63583;49.976;20.182;2023-07-20T05:23:27;7.80;;;3.92;;
75021;SDS011;63583;49.976;20.182;2023-07-20T05:25:57;6.82;;;4.22;;
75021;SDS011;63583;49.976;20.182;2023-07-20T05:28:24;5.72;;;4.13;;
75021;SDS011;63583;49.976;20.182;2023-07-20T05:30:50;6.80;;;4.28;;
75021;SDS011;63583;49.976;20.182;2023-07-20T05:33:19;9.25;;;4.43;;
75021;SDS011;63583;49.976;20.182;2023-07-20T05:35:46;5.53;;;3.78;;
75021;SDS011;63583;49.976;20.182;2023-07-20T05:38:11;6.78;;;4.03;;
75021;SDS011;63583;49.976;20.182;2023-07-20T05:40:37;5.78;;;3.95;;
75021;SDS011;63583;49.976;20.182;2023-07-20T05:43:05;6.07;;;3.40;;
75021;SDS011;63583;49.976;20.182;2023-07-20T05:45:31;8.18;;;3.63;;
75021;SDS011;63583;49.976;20.182;2023-07-20T05:47:56;6.90;;;3.80;;
75021;SDS011;63583;49.976;20.182;2023-07-20T05:50:22;7.47;;;3.40;;
75021;SDS011;63583;49.976;20.182;2023-07-20T05:52:47;7.13;;;3.75;;
75021;SDS011;63583;49.976;20.182;2023-07-20T05:55:13;6.03;;;3.25;;
75021;SDS011;63583;49.976;20.182;2023-07-20T05:57:39;7.80;;;3.63;;
75021;SDS011;63583;49.976;20.182;2023-07-20T06:00:07;6.55;;;3.60;;
75021;SDS011;63583;49.976;20.182;2023-07-20T06:02:34;7.38;;;2.97;;
75021;SDS011;63583;49.976;20.182;2023-07-20T06:04:59;5.82;;;3.63;;
75021;SDS011;63583;49.976;20.182;2023-07-20T06:07:25;4.75;;;3.10;;
75021;SDS011;63583;49.976;20.182;2023-07-20T06:09:51;5.85;;;2.95;;
75021;SDS011;63583;49.976;20.182;2023-07-20T06:12:16;4.75;;;2.78;;
75021;SDS011;63583;49.976;20.182;2023-07-20T06:14:42;4.25;;;2.90;;
75021;SDS011;63583;49.976;20.182;2023-07-20T06:17:08;4.38;;;2.90;;
75021;SDS011;63583;49.976;20.182;2023-07-20T06:19:34;4.30;;;2.80;;
75021;SDS011;63583;49.976;20.182;2023-07-20T06:22:00;5.13;;;3.25;;
75021;SDS011;63583;49.976;20.182;2023-07-20T06:24:26;5.10;;;2.95;;
75021;SDS011;63583;49.976;20.182;2023-07-20T06:26:51;9.02;;;3.17;;
75021;SDS011;63583;49.976;20.182;2023-07-20T06:29:17;5.40;;;3.10;;
75021;SDS011;63583;49.976;20.182;2023-07-20T06:31:43;4.85;;;3.60;;
75021;SDS011;63583;49.976;20.182;2023-07-20T06:34:08;6.43;;;4.07;;
75021;SDS011;63583;49.976;20.182;2023-07-20T06:36:34;6.20;;;4.05;;
75021;SDS011;63583;49.976;20.182;2023-07-20T06:39:00;7.38;;;3.72;;
75021;SDS011;63583;49.976;20.182;2023-07-20T06:41:27;6.22;;;3.72;;
75021;SDS011;63583;49.976;20.182;2023-07-20T06:43:53;7.35;;;3.70;;
75021;SDS011;63583;49.976;20.182;2023-07-20T06:46:23;6.10;;;3.53;;
75021;SDS011;63583;49.976;20.182;2023-07-20T06:48:52;5.38;;;3.63;;
75021;SDS011;63583;49.976;20.182;2023-07-20T06:51:18;5.63;;;4.38;;
75021;SDS011;63583;49.976;20.182;2023-07-20T06:53:44;6.63;;;3.85;;
75021;SDS011;63583;49.976;20.182;2023-07-20T06:56:10;4.85;;;3.10;;
75021;SDS011;63583;49.976;20.182;2023-07-20T06:58:36;5.97;;;3.22;;
75021;SDS011;63583;49.976;20.182;2023-07-20T07:01:05;6.10;;;3.25;;
75021;SDS011;63583;49.976;20.182;2023-07-20T07:03:32;4.95;;;3.00;;
75021;SDS011;63583;49.976;20.182;2023-07-20T07:05:58;6.10;;;3.30;;
75021;SDS011;63583;49.976;20.182;2023-07-20T07:08:24;4.10;;;3.00;;
75021;SDS011;63583;49.976;20.182;2023-07-20T07:10:50;5.47;;;3.08;;
75021;SDS011;63583;49.976;20.182;2023-07-20T07:13:15;4.82;;;2.53;;
75021;SDS011;63583;49.976;20.182;2023-07-20T07:15:42;5.35;;;2.40;;
75021;SDS011;63583;49.976;20.182;2023-07-20T07:18:07;3.70;;;2.40;;
75021;SDS011;63583;49.976;20.182;2023-07-20T07:20:33;4.20;;;2.20;;
75021;SDS011;63583;49.976;20.182;2023-07-20T07:22:59;5.00;;;2.40;;
75021;SDS011;63583;49.976;20.182;2023-07-20T07:25:25;4.10;;;2.35;;
75021;SDS011;63583;49.976;20.182;2023-07-20T07:27:52;5.90;;;2.50;;
75021;SDS011;63583;49.976;20.182;2023-07-20T07:30:19;3.83;;;2.40;;
75021;SDS011;63583;49.976;20.182;2023-07-20T07:32:45;4.03;;;2.50;;
75021;SDS011;63583;49.976;20.182;2023-07-20T07:35:10;5.88;;;2.60;;
75021;SDS011;63583;49.976;20.182;2023-07-20T07:37:37;4.40;;;2.42;;
75021;SDS011;63583;49.976;20.182;2023-07-20T07:40:03;5.00;;;2.90;;
75021;SDS011;63583;49.976;20.182;2023-07-20T07:42:29;4.82;;;2.90;;
75021;SDS011;63583;49.976;20.182;2023-07-20T07:44:55;5.97;;;3.10;;
75021;SDS011;63583;49.976;20.182;2023-07-20T07:47:20;5.57;;;3.30;;
75021;SDS011;63583;49.976;20.182;2023-07-20T07:49:46;4.57;;;2.70;;
75021;SDS011;63583;49.976;20.182;2023-07-20T07:52:11;5.18;;;3.10;;
75021;SDS011;63583;49.976;20.182;2023-07-20T07:54:37;5.40;;;2.95;;
75021;SDS011;63583;49.976;20.182;2023-07-20T07:57:03;5.38;;;3.15;;
75021;SDS011;63583;49.976;20.182;2023-07-20T07:59:28;4.70;;;2.70;;
75021;SDS011;63583;49.976;20.182;2023-07-20T08:01:56;5.55;;;2.70;;
75021;SDS011;63583;49.976;20.182;2023-07-20T08:04:23;4.25;;;2.45;;
75021;SDS011;63583;49.976;20.182;2023-07-20T08:06:49;5.25;;;3.00;;
75021;SDS011;63583;49.976;20.182;2023-07-20T08:09:15;6.60;;;2.85;;
75021;SDS011;63583;49.976;20.182;2023-07-20T08:11:41;5.60;;;2.80;;
75021;SDS011;63583;49.976;20.182;2023-07-20T08:14:06;5.50;;;3.53;;
75021;SDS011;63583;49.976;20.182;2023-07-20T08:16:32;4.18;;;2.83;;
75021;SDS011;63583;49.976;20.182;2023-07-20T08:18:57;4.47;;;2.95;;
75021;SDS011;63583;49.976;20.182;2023-07-20T08:21:23;4.30;;;2.75;;
75021;SDS011;63583;49.976;20.182;2023-07-20T08:23:48;6.75;;;2.95;;
75021;SDS011;63583;49.976;20.182;2023-07-20T08:26:14;4.82;;;3.28;;
75021;SDS011;63583;49.976;20.182;2023-07-20T08:28:40;5.25;;;3.10;;
75021;SDS011;63583;49.976;20.182;2023-07-20T08:31:06;5.90;;;3.00;;
75021;SDS011;63583;49.976;20.182;2023-07-20T08:33:32;5.22;;;3.05;;
75021;SDS011;63583;49.976;20.182;2023-07-20T08:36:00;5.47;;;3.22;;
75021;SDS011;63583;49.976;20.182;2023-07-20T08:38:26;4.75;;;3.28;;
75021;SDS011;63583;49.976;20.182;2023-07-20T08:40:52;6.18;;;3.33;;
75021;SDS011;63583;49.976;20.182;2023-07-20T08:43:19;5.15;;;3.20;;
75021;SDS011;63583;49.976;20.182;2023-07-20T08:45:46;5.13;;;3.20;;
75021;SDS011;63583;49.976;20.182;2023-07-20T08:48:14;4.25;;;3.35;;
75021;SDS011;63583;49.976;20.182;2023-07-20T08:50:41;4.90;;;3.42;;
75021;SDS011;63583;49.976;20.182;2023-07-20T08:53:06;4.75;;;3.40;;
75021;SDS011;63583;49.976;20.182;2023-07-20T08:55:33;6.82;;;4.32;;
75021;SDS011;63583;49.976;20.182;2023-07-20T08:58:00;7.43;;;3.72;;
75021;SDS011;63583;49.976;20.182;2023-07-20T09:00:28;7.28;;;3.55;;
75021;SDS011;63583;49.976;20.182;2023-07-20T09:02:54;6.40;;;3.53;;
75021;SDS011;63583;49.976;20.182;2023-07-20T09:05:21;6.32;;;3.53;;
75021;SDS011;63583;49.976;20.182;2023-07-20T09:07:49;6.00;;;3.38;;
75021;SDS011;63583;49.976;20.182;2023-07-20T09:10:15;4.43;;;2.90;;
75021;SDS011;63583;49.976;20.182;2023-07-20T09:12:41;5.45;;;2.70;;
75021;SDS011;63583;49.976;20.182;2023-07-20T09:15:09;6.40;;;3.55;;
75021;SDS011;63583;49.976;20.182;2023-07-20T09:17:35;5.82;;;3.40;;
75021;SDS011;63583;49.976;20.182;2023-07-20T09:20:03;4.93;;;3.55;;
75021;SDS011;63583;49.976;20.182;2023-07-20T09:22:35;4.45;;;3.20;;
75021;SDS011;63583;49.976;20.182;2023-07-20T09:25:05;5.88;;;3.47;;
75021;SDS011;63583;49.976;20.182;2023-07-20T09:27:38;4.68;;;3.42;;
75021;SDS011;63583;49.976;20.182;2023-07-20T09:30:05;4.75;;;3.63;;
75021;SDS011;63583;49.976;20.182;2023-07-20T09:32:35;4.57;;;3.00;;
75021;SDS011;63583;49.976;20.182;2023-07-20T09:35:04;4.80;;;2.90;;
75021;SDS011;63583;49.976;20.182;2023-07-20T09:37:29;6.30;;;2.92;;
75021;SDS011;63583;49.976;20.182;2023-07-20T09:39:58;3.78;;;2.72;;
75021;SDS011;63583;49.976;20.182;2023-07-20T09:42:25;5.20;;;3.10;;
75021;SDS011;63583;49.976;20.182;2023-07-20T09:44:52;5.45;;;2.65;;
75021;SDS011;63583;49.976;20.182;2023-07-20T09:47:21;4.00;;;2.60;;
75021;SDS011;63583;49.976;20.182;2023-07-20T09:49:48;4.32;;;2.78;;
75021;SDS011;63583;49.976;20.182;2023-07-20T09:52:14;4.57;;;2.78;;
75021;SDS011;63583;49.976;20.182;2023-07-20T09:54:41;3.15;;;2.40;;
75021;SDS011;63583;49.976;20.182;2023-07-20T09:57:11;4.07;;;2.47;;
75021;SDS011;63583;49.976;20.182;2023-07-20T09:59:39;7.45;;;2.92;;
75021;SDS011;63583;49.976;20.182;2023-07-20T10:02:05;4.30;;;2.75;;
75021;SDS011;63583;49.976;20.182;2023-07-20T10:04:42;4.18;;;2.20;;
75021;SDS011;63583;49.976;20.182;2023-07-20T10:07:09;4.13;;;2.38;;
75021;SDS011;63583;49.976;20.182;2023-07-20T10:09:37;3.22;;;2.33;;
75021;SDS011;63583;49.976;20.182;2023-07-20T10:12:05;3.55;;;2.30;;
75021;SDS011;63583;49.976;20.182;2023-07-20T10:14:33;3.20;;;2.17;;
75021;SDS011;63583;49.976;20.182;2023-07-20T10:17:03;3.58;;;2.20;;
75021;SDS011;63583;49.976;20.182;2023-07-20T10:19:37;3.33;;;2.03;;
75021;SDS011;63583;49.976;20.182;2023-07-20T10:22:15;2.80;;;1.77;;
75021;SDS011;63583;49.976;20.182;2023-07-20T10:24:45;4.78;;;2.20;;
75021;SDS011;63583;49.976;20.182;2023-07-20T10:27:13;3.63;;;2.25;;
75021;SDS011;63583;49.976;20.182;2023-07-20T10:29:40;5.32;;;2.00;;
75021;SDS011;63583;49.976;20.182;2023-07-20T10:32:06;5.40;;;1.90;;
75021;SDS011;63583;49.976;20.182;2023-07-20T10:34:34;5.63;;;2.10;;
75021;SDS011;63583;49.976;20.182;2023-07-20T10:36:59;4.13;;;2.05;;
75021;SDS011;63583;49.976;20.182;2023-07-20T10:39:26;3.60;;;1.80;;
75021;SDS011;63583;49.976;20.182;2023-07-20T10:42:03;3.13;;;2.05;;
75021;SDS011;63583;49.976;20.182;2023-07-20T10:44:33;2.92;;;1.75;;
75021;SDS011;63583;49.976;20.182;2023-07-20T10:47:00;3.20;;;2.15;;
75021;SDS011;63583;49.976;20.182;2023-07-20T10:49:33;3.30;;;1.83;;
75021;SDS011;63583;49.976;20.182;2023-07-20T10:52:03;3.85;;;2.03;;
75021;SDS011;63583;49.976;20.182;2023-07-20T10:56:56;3.22;;;2.05;;
75021;SDS011;63583;49.976;20.182;2023-07-20T11:01:48;3.67;;;2.03;;
75021;SDS011;63583;49.976;20.182;2023-07-20T11:04:15;3.50;;;1.70;;
75021;SDS011;63583;49.976;20.182;2023-07-20T11:06:45;3.08;;;1.80;;
75021;SDS011;63583;49.976;20.182;2023-07-20T11:09:12;4.18;;;1.80;;
75021;SDS011;63583;49.976;20.182;2023-07-20T11:11:42;4.47;;;2.10;;
75021;SDS011;63583;49.976;20.182;2023-07-20T11:14:10;4.00;;;1.90;;
75021;SDS011;63583;49.976;20.182;2023-07-20T11:16:46;2.80;;;1.85;;
75021;SDS011;63583;49.976;20.182;2023-07-20T11:19:14;4.35;;;2.03;;
75021;SDS011;63583;49.976;20.182;2023-07-20T11:21:50;2.83;;;2.00;;
75021;SDS011;63583;49.976;20.182;2023-07-20T11:24:17;3.28;;;2.10;;
75021;SDS011;63583;49.976;20.182;2023-07-20T11:26:47;4.10;;;1.90;;
75021;SDS011;63583;49.976;20.182;2023-07-20T11:29:13;3.75;;;2.10;;
75021;SDS011;63583;49.976;20.182;2023-07-20T11:31:39;4.47;;;2.10;;
75021;SDS011;63583;49.976;20.182;2023-07-20T11:34:19;4.18;;;2.10;;
75021;SDS011;63583;49.976;20.182;2023-07-20T11:36:47;3.83;;;1.90;;
75021;SDS011;63583;49.976;20.182;2023-07-20T11:39:15;3.22;;;2.10;;
75021;SDS011;63583;49.976;20.182;2023-07-20T11:41:48;4.93;;;2.50;;
75021;SDS011;63583;49.976;20.182;2023-07-20T11:44:18;2.88;;;2.13;;
75021;SDS011;63583;49.976;20.182;2023-07-20T11:46:46;4.45;;;2.35;;
75021;SDS011;63583;49.976;20.182;2023-07-20T11:49:12;5.00;;;2.92;;
75021;SDS011;63583;49.976;20.182;2023-07-20T11:51:38;4.75;;;2.40;;
75021;SDS011;63583;49.976;20.182;2023-07-20T11:54:05;4.25;;;2.20;;
75021;SDS011;63583;49.976;20.182;2023-07-20T11:56:32;4.93;;;2.40;;
75021;SDS011;63583;49.976;20.182;2023-07-20T11:58:58;3.80;;;2.35;;
75021;SDS011;63583;49.976;20.182;2023-07-20T12:01:26;4.35;;;2.50;;
75021;SDS011;63583;49.976;20.182;2023-07-20T12:04:03;3.03;;;2.22;;
75021;SDS011;63583;49.976;20.182;2023-07-20T12:06:29;3.72;;;2.60;;
75021;SDS011;63583;49.976;20.182;2023-07-20T12:08:56;3.95;;;2.28;;
75021;SDS011;63583;49.976;20.182;2023-07-20T12:11:35;4.25;;;2.58;;
75021;SDS011;63583;49.976;20.182;2023-07-20T12:14:02;4.63;;;2.70;;
75021;SDS011;63583;49.976;20.182;2023-07-20T12:16:29;4.15;;;2.50;;
75021;SDS011;63583;49.976;20.182;2023-07-20T12:18:59;4.40;;;2.72;;
75021;SDS011;63583;49.976;20.182;2023-07-20T12:21:28;3.63;;;2.65;;
75021;SDS011;63583;49.976;20.182;2023-07-20T12:23:55;4.07;;;2.50;;
75021;SDS011;63583;49.976;20.182;2023-07-20T12:26:22;3.97;;;2.80;;
75021;SDS011;63583;49.976;20.182;2023-07-20T12:28:49;5.50;;;2.85;;
75021;SDS011;63583;49.976;20.182;2023-07-20T12:31:15;4.53;;;2.90;;
75021;SDS011;63583;49.976;20.182;2023-07-20T12:33:41;4.75;;;3.33;;
75021;SDS011;63583;49.976;20.182;2023-07-20T12:36:08;4.28;;;3.17;;
75021;SDS011;63583;49.976;20.182;2023-07-20T12:38:34;5.47;;;4.00;;
75021;SDS011;63583;49.976;20.182;2023-07-20T12:41:00;5.00;;;4.00;;
75021;SDS011;63583;49.976;20.182;2023-07-20T12:43:26;4.85;;;3.70;;
75021;SDS011;63583;49.976;20.182;2023-07-20T12:45:53;5.53;;;3.92;;
75021;SDS011;63583;49.976;20.182;2023-07-20T12:48:20;5.72;;;3.78;;
75021;SDS011;63583;49.976;20.182;2023-07-20T12:50:45;4.90;;;3.72;;
75021;SDS011;63583;49.976;20.182;2023-07-20T12:53:11;4.65;;;3.03;;
75021;SDS011;63583;49.976;20.182;2023-07-20T12:55:37;4.00;;;3.20;;
75021;SDS011;63583;49.976;20.182;2023-07-20T12:58:04;4.38;;;3.05;;
75021;SDS011;63583;49.976;20.182;2023-07-20T13:00:30;3.97;;;3.03;;
75021;SDS011;63583;49.976;20.182;2023-07-20T13:02:56;5.78;;;3.28;;
75021;SDS011;63583;49.976;20.182;2023-07-20T13:05:21;5.35;;;3.17;;
75021;SDS011;63583;49.976;20.182;2023-07-20T13:07:47;4.28;;;3.15;;
75021;SDS011;63583;49.976;20.182;2023-07-20T13:10:13;5.05;;;3.20;;
75021;SDS011;63583;49.976;20.182;2023-07-20T13:12:38;4.28;;;3.38;;
75021;SDS011;63583;49.976;20.182;2023-07-20T13:15:05;5.03;;;3.53;;
75021;SDS011;63583;49.976;20.182;2023-07-20T13:17:33;4.95;;;3.78;;
75021;SDS011;63583;49.976;20.182;2023-07-20T13:19:59;5.10;;;3.53;;
75021;SDS011;63583;49.976;20.182;2023-07-20T13:22:24;5.70;;;3.13;;
75021;SDS011;63583;49.976;20.182;2023-07-20T13:24:50;5.88;;;3.70;;
75021;SDS011;63583;49.976;20.182;2023-07-20T13:27:16;6.30;;;3.60;;
75021;SDS011;63583;49.976;20.182;2023-07-20T13:29:43;4.20;;;3.00;;
75021;SDS011;63583;49.976;20.182;2023-07-20T13:32:09;3.80;;;2.85;;
75021;SDS011;63583;49.976;20.182;2023-07-20T13:34:35;3.67;;;3.30;;
75021;SDS011;63583;49.976;20.182;2023-07-20T13:37:01;5.10;;;3.33;;
75021;SDS011;63583;49.976;20.182;2023-07-20T13:39:27;4.25;;;3.22;;
75021;SDS011;63583;49.976;20.182;2023-07-20T13:41:53;5.20;;;3.35;;
75021;SDS011;63583;49.976;20.182;2023-07-20T13:44:22;5.38;;;3.42;;
75021;SDS011;63583;49.976;20.182;2023-07-20T13:46:48;4.75;;;3.25;;
75021;SDS011;63583;49.976;20.182;2023-07-20T13:49:14;4.78;;;3.22;;
75021;SDS011;63583;49.976;20.182;2023-07-20T13:51:41;3.67;;;3.08;;
75021;SDS011;63583;49.976;20.182;2023-07-20T13:54:07;4.18;;;3.47;;
75021;SDS011;63583;49.976;20.182;2023-07-20T13:56:33;5.43;;;3.13;;
75021;SDS011;63583;49.976;20.182;2023-07-20T13:58:58;5.20;;;3.67;;
75021;SDS011;63583;49.976;20.182;2023-07-20T14:01:24;4.47;;;3.40;;
75021;SDS011;63583;49.976;20.182;2023-07-20T14:03:50;5.47;;;3.50;;
75021;SDS011;63583;49.976;20.182;2023-07-20T14:06:16;7.03;;;3.97;;
75021;SDS011;63583;49.976;20.182;2023-07-20T14:08:42;4.60;;;3.20;;
75021;SDS011;63583;49.976;20.182;2023-07-20T14:11:15;4.65;;;3.63;;
75021;SDS011;63583;49.976;20.182;2023-07-20T14:13:41;5.70;;;3.53;;
75021;SDS011;63583;49.976;20.182;2023-07-20T14:16:06;6.03;;;3.53;;
75021;SDS011;63583;49.976;20.182;2023-07-20T14:18:33;5.57;;;3.60;;
75021;SDS011;63583;49.976;20.182;2023-07-20T14:20:59;6.55;;;3.40;;
75021;SDS011;63583;49.976;20.182;2023-07-20T14:23:25;4.60;;;3.05;;
75021;SDS011;63583;49.976;20.182;2023-07-20T14:25:50;4.85;;;3.10;;
75021;SDS011;63583;49.976;20.182;2023-07-20T14:28:16;4.60;;;3.50;;
75021;SDS011;63583;49.976;20.182;2023-07-20T14:30:42;4.03;;;3.13;;
75021;SDS011;63583;49.976;20.182;2023-07-20T14:33:07;4.35;;;2.72;;
75021;SDS011;63583;49.976;20.182;2023-07-20T14:35:33;4.07;;;2.92;;
75021;SDS011;63583;49.976;20.182;2023-07-20T14:37:59;4.93;;;2.85;;
75021;SDS011;63583;49.976;20.182;2023-07-20T14:40:25;4.50;;;3.10;;
75021;SDS011;63583;49.976;20.182;2023-07-20T14:42:51;4.20;;;2.70;;